Penang/Bayan Lepas, Malaysia
Current Conditions -  °F | °C
As of 6:00 AM on Wednesday 26 Nov 2014 (Local Time) from WMKP Reporting Station
Broken Clouds Broken Clouds  
Wind Chill: 79°   Ceiling: 27000
Heat Index: 82°   Visibility: 4mi
Dew Point: 75°   Wind: 3mph
Humidity: 89%   Direction: 360°N
Pressure: 29.71"   Gusts: NA
Location:  5.29°N, 100.28°E
Report Text: WMKP 252200Z 36003KT 7000 FEW025 BKN270 26/24 Q1006 NOSIG
Loading
Personal Weather Stations






























Interactive Weather Map New forecast layout! Learn more

10-Day Weather Forecast

Advertisements
Track Severe Weather on mobile